sensor_id;sensor_type;location;lat;lon;timestamp;P1;durP1;ratioP1;P2;durP2;ratioP2
46815;SDS011;32787;53.316;8.670;2022-08-19T00:01:20;11.75;;;7.25;;
46815;SDS011;32787;53.316;8.670;2022-08-19T00:03:46;11.50;;;7.25;;
46815;SDS011;32787;53.316;8.670;2022-08-19T00:06:11;10.32;;;6.50;;
46815;SDS011;32787;53.316;8.670;2022-08-19T00:08:37;12.05;;;6.43;;
46815;SDS011;32787;53.316;8.670;2022-08-19T00:11:03;11.88;;;7.90;;
46815;SDS011;32787;53.316;8.670;2022-08-19T00:13:28;11.00;;;6.85;;
46815;SDS011;32787;53.316;8.670;2022-08-19T00:15:55;10.07;;;6.75;;
46815;SDS011;32787;53.316;8.670;2022-08-19T00:18:21;11.73;;;7.13;;
46815;SDS011;32787;53.316;8.670;2022-08-19T00:20:46;10.52;;;6.60;;
46815;SDS011;32787;53.316;8.670;2022-08-19T00:23:12;10.13;;;6.68;;
46815;SDS011;32787;53.316;8.670;2022-08-19T00:25:38;12.00;;;7.10;;
46815;SDS011;32787;53.316;8.670;2022-08-19T00:28:04;11.55;;;6.85;;
46815;SDS011;32787;53.316;8.670;2022-08-19T00:30:30;13.52;;;6.55;;
46815;SDS011;32787;53.316;8.670;2022-08-19T00:32:56;12.00;;;7.20;;
46815;SDS011;32787;53.316;8.670;2022-08-19T00:35:22;18.08;;;8.27;;
46815;SDS011;32787;53.316;8.670;2022-08-19T00:37:48;10.32;;;5.82;;
46815;SDS011;32787;53.316;8.670;2022-08-19T00:40:15;12.38;;;7.07;;
46815;SDS011;32787;53.316;8.670;2022-08-19T00:42:43;13.27;;;7.35;;
46815;SDS011;32787;53.316;8.670;2022-08-19T00:45:11;13.10;;;7.97;;
46815;SDS011;32787;53.316;8.670;2022-08-19T00:47:42;11.80;;;7.32;;
46815;SDS011;32787;53.316;8.670;2022-08-19T00:50:08;13.10;;;7.05;;
46815;SDS011;32787;53.316;8.670;2022-08-19T00:52:37;11.70;;;7.22;;
46815;SDS011;32787;53.316;8.670;2022-08-19T00:55:10;13.15;;;7.18;;
46815;SDS011;32787;53.316;8.670;2022-08-19T00:57:44;14.98;;;7.57;;
46815;SDS011;32787;53.316;8.670;2022-08-19T01:02:41;13.95;;;8.10;;
46815;SDS011;32787;53.316;8.670;2022-08-19T01:05:09;13.77;;;8.63;;
46815;SDS011;32787;53.316;8.670;2022-08-19T01:10:06;15.63;;;8.10;;
46815;SDS011;32787;53.316;8.670;2022-08-19T01:12:34;13.45;;;8.75;;
46815;SDS011;32787;53.316;8.670;2022-08-19T01:15:00;12.43;;;7.30;;
46815;SDS011;32787;53.316;8.670;2022-08-19T01:17:26;13.98;;;7.45;;
46815;SDS011;32787;53.316;8.670;2022-08-19T01:19:52;13.45;;;7.78;;
46815;SDS011;32787;53.316;8.670;2022-08-19T01:24:52;11.23;;;7.57;;
46815;SDS011;32787;53.316;8.670;2022-08-19T01:27:18;13.25;;;7.50;;
46815;SDS011;32787;53.316;8.670;2022-08-19T01:29:44;12.95;;;7.80;;
46815;SDS011;32787;53.316;8.670;2022-08-19T01:32:11;12.13;;;7.90;;
46815;SDS011;32787;53.316;8.670;2022-08-19T01:34:39;10.13;;;7.15;;
46815;SDS011;32787;53.316;8.670;2022-08-19T01:37:09;15.18;;;8.18;;
46815;SDS011;32787;53.316;8.670;2022-08-19T01:39:37;12.05;;;8.10;;
46815;SDS011;32787;53.316;8.670;2022-08-19T01:42:04;15.60;;;7.90;;
46815;SDS011;32787;53.316;8.670;2022-08-19T01:44:32;12.68;;;8.35;;
46815;SDS011;32787;53.316;8.670;2022-08-19T01:46:58;12.82;;;7.22;;
46815;SDS011;32787;53.316;8.670;2022-08-19T01:49:23;13.95;;;7.20;;
46815;SDS011;32787;53.316;8.670;2022-08-19T01:51:51;11.73;;;7.22;;
46815;SDS011;32787;53.316;8.670;2022-08-19T01:54:20;11.50;;;6.50;;
46815;SDS011;32787;53.316;8.670;2022-08-19T01:56:48;11.77;;;7.63;;
46815;SDS011;32787;53.316;8.670;2022-08-19T01:59:16;12.65;;;7.70;;
46815;SDS011;32787;53.316;8.670;2022-08-19T02:04:10;10.73;;;6.90;;
46815;SDS011;32787;53.316;8.670;2022-08-19T02:06:36;15.07;;;7.72;;
46815;SDS011;32787;53.316;8.670;2022-08-19T02:09:02;12.15;;;7.65;;
46815;SDS011;32787;53.316;8.670;2022-08-19T02:11:32;12.88;;;7.95;;
46815;SDS011;32787;53.316;8.670;2022-08-19T02:14:01;12.40;;;8.10;;
46815;SDS011;32787;53.316;8.670;2022-08-19T02:18:55;12.80;;;7.60;;
46815;SDS011;32787;53.316;8.670;2022-08-19T02:21:21;12.50;;;8.10;;
46815;SDS011;32787;53.316;8.670;2022-08-19T02:23:48;13.95;;;8.38;;
46815;SDS011;32787;53.316;8.670;2022-08-19T02:26:15;15.98;;;9.25;;
46815;SDS011;32787;53.316;8.670;2022-08-19T02:28:41;15.23;;;8.88;;
46815;SDS011;32787;53.316;8.670;2022-08-19T02:31:11;14.05;;;9.35;;
46815;SDS011;32787;53.316;8.670;2022-08-19T02:33:39;13.80;;;8.52;;
46815;SDS011;32787;53.316;8.670;2022-08-19T02:36:06;13.73;;;8.18;;
46815;SDS011;32787;53.316;8.670;2022-08-19T02:38:32;11.93;;;7.93;;
46815;SDS011;32787;53.316;8.670;2022-08-19T02:41:02;12.68;;;7.40;;
46815;SDS011;32787;53.316;8.670;2022-08-19T02:43:30;12.45;;;7.57;;
46815;SDS011;32787;53.316;8.670;2022-08-19T02:45:57;15.88;;;8.20;;
46815;SDS011;32787;53.316;8.670;2022-08-19T02:48:23;11.38;;;7.90;;
46815;SDS011;32787;53.316;8.670;2022-08-19T02:50:51;11.50;;;7.65;;
46815;SDS011;32787;53.316;8.670;2022-08-19T02:53:26;12.98;;;7.60;;
46815;SDS011;32787;53.316;8.670;2022-08-19T02:55:52;11.88;;;7.65;;
46815;SDS011;32787;53.316;8.670;2022-08-19T02:58:19;11.88;;;7.93;;
46815;SDS011;32787;53.316;8.670;2022-08-19T03:00:46;13.57;;;8.13;;
46815;SDS011;32787;53.316;8.670;2022-08-19T03:03:14;14.73;;;8.63;;
46815;SDS011;32787;53.316;8.670;2022-08-19T03:05:41;13.43;;;7.88;;
46815;SDS011;32787;53.316;8.670;2022-08-19T03:08:08;14.05;;;8.13;;
46815;SDS011;32787;53.316;8.670;2022-08-19T03:10:44;9.70;;;5.97;;
46815;SDS011;32787;53.316;8.670;2022-08-19T03:13:12;10.27;;;6.45;;
46815;SDS011;32787;53.316;8.670;2022-08-19T03:15:40;7.78;;;4.13;;
46815;SDS011;32787;53.316;8.670;2022-08-19T03:18:11;8.25;;;5.05;;
46815;SDS011;32787;53.316;8.670;2022-08-19T03:20:43;7.78;;;4.65;;
46815;SDS011;32787;53.316;8.670;2022-08-19T03:23:13;10.73;;;4.93;;
46815;SDS011;32787;53.316;8.670;2022-08-19T03:25:41;7.57;;;4.18;;
46815;SDS011;32787;53.316;8.670;2022-08-19T03:28:12;10.13;;;3.95;;
46815;SDS011;32787;53.316;8.670;2022-08-19T03:30:40;7.70;;;3.83;;
46815;SDS011;32787;53.316;8.670;2022-08-19T03:33:07;6.90;;;3.63;;
46815;SDS011;32787;53.316;8.670;2022-08-19T03:35:33;6.82;;;3.83;;
46815;SDS011;32787;53.316;8.670;2022-08-19T03:38:05;7.53;;;3.92;;
46815;SDS011;32787;53.316;8.670;2022-08-19T03:40:32;6.82;;;3.35;;
46815;SDS011;32787;53.316;8.670;2022-08-19T03:43:01;7.90;;;4.15;;
46815;SDS011;32787;53.316;8.670;2022-08-19T03:45:27;6.65;;;3.78;;
46815;SDS011;32787;53.316;8.670;2022-08-19T03:47:53;7.40;;;3.60;;
46815;SDS011;32787;53.316;8.670;2022-08-19T03:50:20;7.95;;;3.35;;
46815;SDS011;32787;53.316;8.670;2022-08-19T03:52:49;8.73;;;3.63;;
46815;SDS011;32787;53.316;8.670;2022-08-19T03:55:16;5.72;;;3.10;;
46815;SDS011;32787;53.316;8.670;2022-08-19T03:57:43;7.28;;;3.13;;
46815;SDS011;32787;53.316;8.670;2022-08-19T04:00:10;5.88;;;3.05;;
46815;SDS011;32787;53.316;8.670;2022-08-19T04:02:37;5.43;;;2.92;;
46815;SDS011;32787;53.316;8.670;2022-08-19T04:05:02;6.32;;;2.83;;
46815;SDS011;32787;53.316;8.670;2022-08-19T04:07:28;6.28;;;3.20;;
46815;SDS011;32787;53.316;8.670;2022-08-19T04:09:54;6.15;;;3.08;;
46815;SDS011;32787;53.316;8.670;2022-08-19T04:12:19;7.00;;;3.00;;
46815;SDS011;32787;53.316;8.670;2022-08-19T04:14:45;6.50;;;3.05;;
46815;SDS011;32787;53.316;8.670;2022-08-19T04:17:11;7.05;;;3.20;;
46815;SDS011;32787;53.316;8.670;2022-08-19T04:19:38;7.63;;;3.10;;
46815;SDS011;32787;53.316;8.670;2022-08-19T04:22:04;5.43;;;3.13;;
46815;SDS011;32787;53.316;8.670;2022-08-19T04:24:31;5.80;;;2.95;;
46815;SDS011;32787;53.316;8.670;2022-08-19T04:26:59;6.32;;;3.30;;
46815;SDS011;32787;53.316;8.670;2022-08-19T04:29:28;9.38;;;3.47;;
46815;SDS011;32787;53.316;8.670;2022-08-19T04:31:54;7.20;;;3.53;;
46815;SDS011;32787;53.316;8.670;2022-08-19T04:34:22;8.25;;;3.65;;
46815;SDS011;32787;53.316;8.670;2022-08-19T04:36:49;7.05;;;3.90;;
46815;SDS011;32787;53.316;8.670;2022-08-19T04:39:17;7.38;;;3.70;;
46815;SDS011;32787;53.316;8.670;2022-08-19T04:42:09;8.63;;;3.80;;
46815;SDS011;32787;53.316;8.670;2022-08-19T04:44:53;7.70;;;4.05;;
46815;SDS011;32787;53.316;8.670;2022-08-19T04:47:19;7.30;;;4.05;;
46815;SDS011;32787;53.316;8.670;2022-08-19T04:49:44;8.32;;;4.60;;
46815;SDS011;32787;53.316;8.670;2022-08-19T04:52:10;7.50;;;4.50;;
46815;SDS011;32787;53.316;8.670;2022-08-19T04:54:35;10.55;;;4.53;;
46815;SDS011;32787;53.316;8.670;2022-08-19T04:57:01;10.68;;;5.80;;
46815;SDS011;32787;53.316;8.670;2022-08-19T04:59:27;8.98;;;4.65;;
46815;SDS011;32787;53.316;8.670;2022-08-19T05:01:52;7.18;;;3.88;;
46815;SDS011;32787;53.316;8.670;2022-08-19T05:04:19;7.32;;;4.13;;
46815;SDS011;32787;53.316;8.670;2022-08-19T05:06:46;8.98;;;5.03;;
46815;SDS011;32787;53.316;8.670;2022-08-19T05:09:13;8.55;;;4.95;;
46815;SDS011;32787;53.316;8.670;2022-08-19T05:11:40;9.52;;;5.75;;
46815;SDS011;32787;53.316;8.670;2022-08-19T05:14:06;10.05;;;6.88;;
46815;SDS011;32787;53.316;8.670;2022-08-19T05:16:33;16.38;;;9.38;;
46815;SDS011;32787;53.316;8.670;2022-08-19T05:18:59;17.70;;;11.35;;
46815;SDS011;32787;53.316;8.670;2022-08-19T05:21:43;16.67;;;10.48;;
46815;SDS011;32787;53.316;8.670;2022-08-19T05:24:29;14.63;;;10.40;;
46815;SDS011;32787;53.316;8.670;2022-08-19T05:26:55;14.80;;;10.25;;
46815;SDS011;32787;53.316;8.670;2022-08-19T05:29:22;16.27;;;9.98;;
46815;SDS011;32787;53.316;8.670;2022-08-19T05:31:50;16.33;;;10.18;;
46815;SDS011;32787;53.316;8.670;2022-08-19T05:34:17;13.75;;;9.70;;
46815;SDS011;32787;53.316;8.670;2022-08-19T05:36:46;14.23;;;10.38;;
46815;SDS011;32787;53.316;8.670;2022-08-19T05:39:13;14.20;;;9.23;;
46815;SDS011;32787;53.316;8.670;2022-08-19T05:41:44;13.43;;;9.15;;
46815;SDS011;32787;53.316;8.670;2022-08-19T05:44:12;13.45;;;8.82;;
46815;SDS011;32787;53.316;8.670;2022-08-19T05:46:39;14.00;;;8.52;;
46815;SDS011;32787;53.316;8.670;2022-08-19T05:49:07;13.63;;;8.82;;
46815;SDS011;32787;53.316;8.670;2022-08-19T05:51:34;13.00;;;8.40;;
46815;SDS011;32787;53.316;8.670;2022-08-19T05:54:02;13.77;;;8.32;;
46815;SDS011;32787;53.316;8.670;2022-08-19T05:56:29;13.30;;;7.63;;
46815;SDS011;32787;53.316;8.670;2022-08-19T05:58:55;11.02;;;7.53;;
46815;SDS011;32787;53.316;8.670;2022-08-19T06:01:21;13.85;;;8.88;;
46815;SDS011;32787;53.316;8.670;2022-08-19T06:03:47;12.90;;;8.20;;
46815;SDS011;32787;53.316;8.670;2022-08-19T06:06:14;12.55;;;7.70;;
46815;SDS011;32787;53.316;8.670;2022-08-19T06:08:42;11.93;;;7.75;;
46815;SDS011;32787;53.316;8.670;2022-08-19T06:11:24;13.82;;;7.47;;
46815;SDS011;32787;53.316;8.670;2022-08-19T06:13:52;12.15;;;8.10;;
46815;SDS011;32787;53.316;8.670;2022-08-19T06:16:19;12.43;;;8.45;;
46815;SDS011;32787;53.316;8.670;2022-08-19T06:18:47;12.15;;;8.52;;
46815;SDS011;32787;53.316;8.670;2022-08-19T06:21:17;13.68;;;8.25;;
46815;SDS011;32787;53.316;8.670;2022-08-19T06:23:47;14.45;;;9.38;;
46815;SDS011;32787;53.316;8.670;2022-08-19T06:26:15;14.60;;;9.88;;
46815;SDS011;32787;53.316;8.670;2022-08-19T06:28:41;14.52;;;10.60;;
46815;SDS011;32787;53.316;8.670;2022-08-19T06:31:11;13.68;;;8.75;;
46815;SDS011;32787;53.316;8.670;2022-08-19T06:33:41;15.27;;;9.10;;
46815;SDS011;32787;53.316;8.670;2022-08-19T06:36:15;14.07;;;8.23;;
46815;SDS011;32787;53.316;8.670;2022-08-19T06:38:42;16.85;;;9.48;;
46815;SDS011;32787;53.316;8.670;2022-08-19T06:41:08;13.30;;;8.05;;
46815;SDS011;32787;53.316;8.670;2022-08-19T06:43:34;13.38;;;7.88;;
46815;SDS011;32787;53.316;8.670;2022-08-19T06:46:01;13.02;;;7.35;;
46815;SDS011;32787;53.316;8.670;2022-08-19T06:48:28;11.50;;;6.93;;
46815;SDS011;32787;53.316;8.670;2022-08-19T06:50:54;13.13;;;7.22;;
46815;SDS011;32787;53.316;8.670;2022-08-19T06:53:21;12.73;;;7.95;;
46815;SDS011;32787;53.316;8.670;2022-08-19T06:55:46;11.32;;;6.68;;
46815;SDS011;32787;53.316;8.670;2022-08-19T06:58:12;11.43;;;6.97;;
46815;SDS011;32787;53.316;8.670;2022-08-19T07:00:39;10.00;;;7.05;;
46815;SDS011;32787;53.316;8.670;2022-08-19T07:03:04;10.32;;;6.28;;
46815;SDS011;32787;53.316;8.670;2022-08-19T07:05:30;13.48;;;6.75;;
46815;SDS011;32787;53.316;8.670;2022-08-19T07:07:56;12.05;;;6.53;;
46815;SDS011;32787;53.316;8.670;2022-08-19T07:10:22;11.43;;;5.68;;
46815;SDS011;32787;53.316;8.670;2022-08-19T07:12:48;7.07;;;4.65;;
46815;SDS011;32787;53.316;8.670;2022-08-19T07:15:15;9.07;;;4.80;;
46815;SDS011;32787;53.316;8.670;2022-08-19T07:17:41;9.40;;;4.75;;
46815;SDS011;32787;53.316;8.670;2022-08-19T07:20:08;7.18;;;3.88;;
46815;SDS011;32787;53.316;8.670;2022-08-19T07:22:35;10.93;;;4.70;;
46815;SDS011;32787;53.316;8.670;2022-08-19T07:25:03;6.78;;;3.92;;
46815;SDS011;32787;53.316;8.670;2022-08-19T07:27:30;8.13;;;3.65;;
46815;SDS011;32787;53.316;8.670;2022-08-19T07:29:56;8.82;;;4.55;;
46815;SDS011;32787;53.316;8.670;2022-08-19T07:32:22;6.40;;;3.47;;
46815;SDS011;32787;53.316;8.670;2022-08-19T07:34:47;6.13;;;3.28;;
46815;SDS011;32787;53.316;8.670;2022-08-19T07:37:13;7.95;;;3.22;;
46815;SDS011;32787;53.316;8.670;2022-08-19T07:39:38;7.45;;;3.15;;
46815;SDS011;32787;53.316;8.670;2022-08-19T07:42:05;7.03;;;3.38;;
46815;SDS011;32787;53.316;8.670;2022-08-19T07:44:34;6.35;;;3.28;;
46815;SDS011;32787;53.316;8.670;2022-08-19T07:47:01;5.93;;;2.50;;
46815;SDS011;32787;53.316;8.670;2022-08-19T07:49:27;6.32;;;2.70;;
46815;SDS011;32787;53.316;8.670;2022-08-19T07:51:54;7.25;;;2.63;;
46815;SDS011;32787;53.316;8.670;2022-08-19T07:54:27;8.68;;;2.63;;
46815;SDS011;32787;53.316;8.670;2022-08-19T07:56:54;7.97;;;2.50;;
46815;SDS011;32787;53.316;8.670;2022-08-19T07:59:20;4.90;;;2.25;;
46815;SDS011;32787;53.316;8.670;2022-08-19T08:01:47;6.88;;;2.40;;
46815;SDS011;32787;53.316;8.670;2022-08-19T08:04:14;5.53;;;2.40;;
46815;SDS011;32787;53.316;8.670;2022-08-19T08:06:59;9.10;;;2.83;;
46815;SDS011;32787;53.316;8.670;2022-08-19T08:09:44;7.43;;;2.05;;
46815;SDS011;32787;53.316;8.670;2022-08-19T08:12:12;4.03;;;2.08;;
46815;SDS011;32787;53.316;8.670;2022-08-19T08:17:09;6.75;;;2.60;;
46815;SDS011;32787;53.316;8.670;2022-08-19T08:19:35;6.93;;;2.55;;
46815;SDS011;32787;53.316;8.670;2022-08-19T08:22:01;5.72;;;2.67;;
46815;SDS011;32787;53.316;8.670;2022-08-19T08:24:29;6.55;;;2.30;;
46815;SDS011;32787;53.316;8.670;2022-08-19T08:26:56;6.95;;;2.58;;
46815;SDS011;32787;53.316;8.670;2022-08-19T08:29:24;7.45;;;2.60;;
46815;SDS011;32787;53.316;8.670;2022-08-19T08:31:53;6.45;;;2.58;;
46815;SDS011;32787;53.316;8.670;2022-08-19T08:34:19;6.80;;;2.92;;
46815;SDS011;32787;53.316;8.670;2022-08-19T08:36:45;4.82;;;2.10;;
46815;SDS011;32787;53.316;8.670;2022-08-19T08:39:12;7.13;;;2.50;;
46815;SDS011;32787;53.316;8.670;2022-08-19T08:44:06;6.93;;;2.70;;
46815;SDS011;32787;53.316;8.670;2022-08-19T08:46:41;6.78;;;2.85;;
46815;SDS011;32787;53.316;8.670;2022-08-19T08:52:11;7.53;;;2.80;;
46815;SDS011;32787;53.316;8.670;2022-08-19T08:54:48;7.93;;;3.00;;
46815;SDS011;32787;53.316;8.670;2022-08-19T08:57:23;5.32;;;2.80;;
46815;SDS011;32787;53.316;8.670;2022-08-19T08:59:53;6.03;;;3.30;;
46815;SDS011;32787;53.316;8.670;2022-08-19T09:02:22;7.60;;;2.88;;
46815;SDS011;32787;53.316;8.670;2022-08-19T09:04:47;5.70;;;2.80;;
46815;SDS011;32787;53.316;8.670;2022-08-19T09:07:20;5.65;;;2.20;;
46815;SDS011;32787;53.316;8.670;2022-08-19T09:10:00;7.80;;;2.53;;
46815;SDS011;32787;53.316;8.670;2022-08-19T09:12:53;5.90;;;2.50;;
46815;SDS011;32787;53.316;8.670;2022-08-19T09:15:34;5.53;;;2.42;;
46815;SDS011;32787;53.316;8.670;2022-08-19T09:18:05;7.22;;;2.92;;
46815;SDS011;32787;53.316;8.670;2022-08-19T09:20:31;4.65;;;2.20;;
46815;SDS011;32787;53.316;8.670;2022-08-19T09:22:57;4.95;;;2.08;;
46815;SDS011;32787;53.316;8.670;2022-08-19T09:25:23;7.95;;;3.05;;
46815;SDS011;32787;53.316;8.670;2022-08-19T09:27:50;5.55;;;2.55;;
46815;SDS011;32787;53.316;8.670;2022-08-19T09:30:23;5.75;;;2.75;;
46815;SDS011;32787;53.316;8.670;2022-08-19T09:32:50;7.47;;;2.80;;
46815;SDS011;32787;53.316;8.670;2022-08-19T09:35:23;5.30;;;2.70;;
46815;SDS011;32787;53.316;8.670;2022-08-19T09:37:51;5.35;;;2.08;;
46815;SDS011;32787;53.316;8.670;2022-08-19T09:40:17;5.57;;;2.40;;
46815;SDS011;32787;53.316;8.670;2022-08-19T09:42:44;6.65;;;2.25;;
46815;SDS011;32787;53.316;8.670;2022-08-19T09:45:12;5.00;;;2.22;;
46815;SDS011;32787;53.316;8.670;2022-08-19T09:47:42;5.90;;;2.55;;
46815;SDS011;32787;53.316;8.670;2022-08-19T09:50:09;6.35;;;2.47;;
46815;SDS011;32787;53.316;8.670;2022-08-19T09:52:39;7.20;;;2.67;;
46815;SDS011;32787;53.316;8.670;2022-08-19T09:55:09;5.60;;;2.45;;
46815;SDS011;32787;53.316;8.670;2022-08-19T09:57:36;6.47;;;2.55;;
46815;SDS011;32787;53.316;8.670;2022-08-19T10:00:05;5.97;;;2.30;;
46815;SDS011;32787;53.316;8.670;2022-08-19T10:02:33;5.38;;;2.25;;
46815;SDS011;32787;53.316;8.670;2022-08-19T10:04:59;6.40;;;2.10;;
46815;SDS011;32787;53.316;8.670;2022-08-19T10:07:43;5.72;;;1.80;;
46815;SDS011;32787;53.316;8.670;2022-08-19T10:10:09;5.03;;;2.10;;
46815;SDS011;32787;53.316;8.670;2022-08-19T10:12:35;4.43;;;1.67;;
46815;SDS011;32787;53.316;8.670;2022-08-19T10:15:01;5.43;;;2.00;;
46815;SDS011;32787;53.316;8.670;2022-08-19T10:17:28;5.07;;;2.28;;
46815;SDS011;32787;53.316;8.670;2022-08-19T10:19:53;5.85;;;2.58;;
46815;SDS011;32787;53.316;8.670;2022-08-19T10:22:19;6.47;;;2.22;;
46815;SDS011;32787;53.316;8.670;2022-08-19T10:24:45;6.45;;;2.28;;
46815;SDS011;32787;53.316;8.670;2022-08-19T10:27:11;4.38;;;2.00;;
46815;SDS011;32787;53.316;8.670;2022-08-19T10:29:38;3.97;;;1.73;;
46815;SDS011;32787;53.316;8.670;2022-08-19T10:32:05;4.78;;;2.00;;
46815;SDS011;32787;53.316;8.670;2022-08-19T10:34:33;5.30;;;2.00;;
46815;SDS011;32787;53.316;8.670;2022-08-19T10:37:01;5.05;;;2.13;;
46815;SDS011;32787;53.316;8.670;2022-08-19T10:39:28;4.15;;;2.00;;
46815;SDS011;32787;53.316;8.670;2022-08-19T10:41:54;7.45;;;2.33;;
46815;SDS011;32787;53.316;8.670;2022-08-19T10:44:22;6.13;;;2.38;;
46815;SDS011;32787;53.316;8.670;2022-08-19T10:46:48;5.50;;;2.00;;
46815;SDS011;32787;53.316;8.670;2022-08-19T10:49:14;6.18;;;2.03;;
46815;SDS011;32787;53.316;8.670;2022-08-19T10:51:41;5.10;;;1.77;;
46815;SDS011;32787;53.316;8.670;2022-08-19T10:54:25;7.47;;;2.05;;
46815;SDS011;32787;53.316;8.670;2022-08-19T10:57:11;5.40;;;1.92;;
46815;SDS011;32787;53.316;8.670;2022-08-19T10:59:38;4.25;;;2.05;;
46815;SDS011;32787;53.316;8.670;2022-08-19T11:02:04;5.07;;;1.77;;
46815;SDS011;32787;53.316;8.670;2022-08-19T11:04:34;4.97;;;2.05;;
46815;SDS011;32787;53.316;8.670;2022-08-19T11:07:01;2.78;;;1.50;;
46815;SDS011;32787;53.316;8.670;2022-08-19T11:09:27;9.63;;;2.08;;
46815;SDS011;32787;53.316;8.670;2022-08-19T11:11:55;6.53;;;1.98;;
46815;SDS011;32787;53.316;8.670;2022-08-19T11:14:21;5.45;;;1.83;;
46815;SDS011;32787;53.316;8.670;2022-08-19T11:16:58;6.97;;;2.17;;
46815;SDS011;32787;53.316;8.670;2022-08-19T11:19:24;4.63;;;1.92;;
46815;SDS011;32787;53.316;8.670;2022-08-19T11:21:51;4.68;;;2.00;;
46815;SDS011;32787;53.316;8.670;2022-08-19T11:24:20;5.57;;;1.92;;
46815;SDS011;32787;53.316;8.670;2022-08-19T11:26:49;4.07;;;1.55;;
46815;SDS011;32787;53.316;8.670;2022-08-19T11:29:16;5.28;;;1.83;;
46815;SDS011;32787;53.316;8.670;2022-08-19T11:31:44;4.43;;;1.58;;
46815;SDS011;32787;53.316;8.670;2022-08-19T11:34:13;5.25;;;1.73;;
46815;SDS011;32787;53.316;8.670;2022-08-19T11:36:43;6.38;;;1.55;;
46815;SDS011;32787;53.316;8.670;2022-08-19T11:39:10;5.75;;;1.67;;
46815;SDS011;32787;53.316;8.670;2022-08-19T11:41:37;4.45;;;1.30;;
46815;SDS011;32787;53.316;8.670;2022-08-19T11:44:03;4.43;;;1.55;;
46815;SDS011;32787;53.316;8.670;2022-08-19T11:46:29;4.00;;;1.23;;
46815;SDS011;32787;53.316;8.670;2022-08-19T11:48:56;4.35;;;1.25;;
46815;SDS011;32787;53.316;8.670;2022-08-19T11:51:24;3.92;;;1.38;;
46815;SDS011;32787;53.316;8.670;2022-08-19T11:53:51;3.03;;;1.10;;
46815;SDS011;32787;53.316;8.670;2022-08-19T11:56:18;2.70;;;1.08;;
46815;SDS011;32787;53.316;8.670;2022-08-19T11:58:44;2.55;;;1.10;;
46815;SDS011;32787;53.316;8.670;2022-08-19T12:01:13;3.28;;;0.80;;
46815;SDS011;32787;53.316;8.670;2022-08-19T12:03:42;4.07;;;1.00;;
46815;SDS011;32787;53.316;8.670;2022-08-19T12:06:10;3.08;;;0.82;;
46815;SDS011;32787;53.316;8.670;2022-08-19T12:08:38;2.65;;;1.10;;
46815;SDS011;32787;53.316;8.670;2022-08-19T12:11:05;3.83;;;1.35;;
46815;SDS011;32787;53.316;8.670;2022-08-19T12:13:32;3.80;;;1.27;;
46815;SDS011;32787;53.316;8.670;2022-08-19T12:15:59;3.60;;;0.90;;
46815;SDS011;32787;53.316;8.670;2022-08-19T12:18:26;1.20;;;0.63;;
46815;SDS011;32787;53.316;8.670;2022-08-19T12:20:52;1.33;;;0.68;;
46815;SDS011;32787;53.316;8.670;2022-08-19T12:23:21;3.17;;;0.93;;
46815;SDS011;32787;53.316;8.670;2022-08-19T12:25:48;2.35;;;0.60;;
46815;SDS011;32787;53.316;8.670;2022-08-19T12:28:18;2.05;;;0.65;;
46815;SDS011;32787;53.316;8.670;2022-08-19T12:30:45;2.45;;;0.52;;
46815;SDS011;32787;53.316;8.670;2022-08-19T12:33:11;2.08;;;0.60;;
46815;SDS011;32787;53.316;8.670;2022-08-19T12:35:41;1.92;;;0.50;;
46815;SDS011;32787;53.316;8.670;2022-08-19T12:38:10;3.20;;;0.70;;
46815;SDS011;32787;53.316;8.670;2022-08-19T12:40:36;1.70;;;0.60;;
46815;SDS011;32787;53.316;8.670;2022-08-19T12:43:04;1.20;;;0.50;;
46815;SDS011;32787;53.316;8.670;2022-08-19T12:45:31;1.42;;;0.60;;
46815;SDS011;32787;53.316;8.670;2022-08-19T12:47:56;2.45;;;0.80;;
46815;SDS011;32787;53.316;8.670;2022-08-19T12:50:22;3.28;;;0.65;;
46815;SDS011;32787;53.316;8.670;2022-08-19T12:52:47;2.35;;;0.70;;
46815;SDS011;32787;53.316;8.670;2022-08-19T12:55:14;1.48;;;0.70;;
46815;SDS011;32787;53.316;8.670;2022-08-19T12:57:39;2.38;;;0.70;;
46815;SDS011;32787;53.316;8.670;2022-08-19T13:00:07;1.95;;;0.70;;
46815;SDS011;32787;53.316;8.670;2022-08-19T13:02:42;3.42;;;0.75;;
46815;SDS011;32787;53.316;8.670;2022-08-19T13:05:11;4.22;;;0.90;;
46815;SDS011;32787;53.316;8.670;2022-08-19T13:07:41;1.58;;;0.65;;
46815;SDS011;32787;53.316;8.670;2022-08-19T13:10:11;1.98;;;0.80;;
46815;SDS011;32787;53.316;8.670;2022-08-19T13:12:38;2.60;;;0.60;;
46815;SDS011;32787;53.316;8.670;2022-08-19T13:15:05;1.77;;;0.75;;
46815;SDS011;32787;53.316;8.670;2022-08-19T13:17:33;2.80;;;0.80;;
46815;SDS011;32787;53.316;8.670;2022-08-19T13:19:59;3.45;;;0.65;;
46815;SDS011;32787;53.316;8.670;2022-08-19T13:22:24;2.40;;;0.70;;
46815;SDS011;32787;53.316;8.670;2022-08-19T13:24:50;0.82;;;0.60;;
46815;SDS011;32787;53.316;8.670;2022-08-19T13:27:16;2.45;;;0.60;;
46815;SDS011;32787;53.316;8.670;2022-08-19T13:29:41;2.95;;;0.60;;
46815;SDS011;32787;53.316;8.670;2022-08-19T13:32:26;1.60;;;0.57;;
46815;SDS011;32787;53.316;8.670;2022-08-19T13:35:10;2.58;;;1.00;;
46815;SDS011;32787;53.316;8.670;2022-08-19T13:37:37;2.25;;;0.90;;
46815;SDS011;32787;53.316;8.670;2022-08-19T13:40:13;1.30;;;0.75;;
46815;SDS011;32787;53.316;8.670;2022-08-19T13:42:43;1.70;;;0.80;;
46815;SDS011;32787;53.316;8.670;2022-08-19T13:45:13;2.85;;;0.80;;
46815;SDS011;32787;53.316;8.670;2022-08-19T13:47:41;2.20;;;0.87;;
46815;SDS011;32787;53.316;8.670;2022-08-19T13:50:10;2.40;;;0.90;;
46815;SDS011;32787;53.316;8.670;2022-08-19T13:52:37;4.18;;;1.00;;
46815;SDS011;32787;53.316;8.670;2022-08-19T13:55:03;2.75;;;0.80;;
46815;SDS011;32787;53.316;8.670;2022-08-19T13:57:30;2.88;;;0.85;;
46815;SDS011;32787;53.316;8.670;2022-08-19T13:59:56;3.80;;;0.80;;
46815;SDS011;32787;53.316;8.670;2022-08-19T14:02:23;2.45;;;0.88;;
46815;SDS011;32787;53.316;8.670;2022-08-19T14:04:49;2.90;;;0.90;;
46815;SDS011;32787;53.316;8.670;2022-08-19T14:07:15;2.42;;;0.75;;
46815;SDS011;32787;53.316;8.670;2022-08-19T14:09:40;2.40;;;0.95;;
46815;SDS011;32787;53.316;8.670;2022-08-19T14:12:06;3.33;;;0.90;;
46815;SDS011;32787;53.316;8.670;2022-08-19T14:14:35;4.22;;;0.90;;
46815;SDS011;32787;53.316;8.670;2022-08-19T14:17:05;1.80;;;0.90;;
46815;SDS011;32787;53.316;8.670;2022-08-19T14:19:31;3.08;;;0.80;;
46815;SDS011;32787;53.316;8.670;2022-08-19T14:21:57;4.15;;;1.00;;
46815;SDS011;32787;53.316;8.670;2022-08-19T14:24:22;1.55;;;0.63;;
46815;SDS011;32787;53.316;8.670;2022-08-19T14:26:48;3.08;;;0.80;;
46815;SDS011;32787;53.316;8.670;2022-08-19T14:29:14;2.40;;;0.70;;
46815;SDS011;32787;53.316;8.670;2022-08-19T14:31:39;2.80;;;0.82;;
46815;SDS011;32787;53.316;8.670;2022-08-19T14:34:07;2.08;;;0.70;;
46815;SDS011;32787;53.316;8.670;2022-08-19T14:36:32;2.58;;;1.10;;
46815;SDS011;32787;53.316;8.670;2022-08-19T14:38:59;1.95;;;0.80;;
46815;SDS011;32787;53.316;8.670;2022-08-19T14:41:25;2.80;;;0.85;;
46815;SDS011;32787;53.316;8.670;2022-08-19T14:43:52;2.70;;;0.75;;
46815;SDS011;32787;53.316;8.670;2022-08-19T14:46:19;2.03;;;0.80;;
46815;SDS011;32787;53.316;8.670;2022-08-19T14:48:47;3.08;;;0.82;;
46815;SDS011;32787;53.316;8.670;2022-08-19T14:51:14;3.95;;;0.93;;
46815;SDS011;32787;53.316;8.670;2022-08-19T14:53:40;3.45;;;0.90;;
46815;SDS011;32787;53.316;8.670;2022-08-19T14:56:07;1.88;;;0.60;;
46815;SDS011;32787;53.316;8.670;2022-08-19T14:58:34;2.90;;;0.90;;
46815;SDS011;32787;53.316;8.670;2022-08-19T15:01:00;2.47;;;0.70;;
46815;SDS011;32787;53.316;8.670;2022-08-19T15:03:26;2.72;;;1.00;;
46815;SDS011;32787;53.316;8.670;2022-08-19T15:05:52;2.88;;;1.00;;
46815;SDS011;32787;53.316;8.670;2022-08-19T15:08:18;3.08;;;0.80;;